createdAt,value
2018-11-03T00:00:26.728Z,102894.52
2018-11-03T00:04:30.640Z,102900.95
2018-11-03T00:08:34.494Z,102905.66
2018-11-03T00:12:53.287Z,102900.39
2018-11-03T00:16:57.119Z,102905.55
2018-11-03T00:21:01.053Z,102910.69
2018-11-03T00:25:06.216Z,102902.78
2018-11-03T00:29:10.086Z,102904.52
2018-11-03T00:33:14.012Z,102906.61
2018-11-03T00:37:18.321Z,102905.31
2018-11-03T00:41:22.264Z,102909.14
2018-11-03T00:45:26.118Z,102913.91
2018-11-03T00:49:30.008Z,102912.14
2018-11-03T00:53:33.920Z,102898.17
2018-11-03T00:57:38.412Z,102908.46
2018-11-03T01:01:42.291Z,102903.19
2018-11-03T01:05:46.220Z,102910.98
2018-11-03T01:09:50.373Z,102905.72
2018-11-03T01:13:54.727Z,102903.91
2018-11-03T01:17:59.013Z,102904.27
2018-11-03T01:22:03.273Z,102913.28
2018-11-03T01:26:07.577Z,102908.91
2018-11-03T01:30:14.432Z,102910.60
2018-11-03T01:34:18.895Z,102904.43
2018-11-03T01:38:23.176Z,102904.39
2018-11-03T01:42:27.860Z,102896.44
2018-11-03T01:46:32.117Z,102900.33
2018-11-03T01:50:36.561Z,102894.55
2018-11-03T01:54:40.733Z,102895.41
2018-11-03T01:58:45.044Z,102898.33
2018-11-03T02:02:49.373Z,102898.72
2018-11-03T02:06:53.706Z,102898.70
2018-11-03T02:10:57.996Z,102896.90
2018-11-03T02:15:02.249Z,102891.63
2018-11-03T02:19:06.440Z,102893.31
2018-11-03T02:23:12.240Z,102893.63
2018-11-03T02:27:16.322Z,102887.09
2018-11-03T02:31:21.154Z,102887.00
2018-11-03T02:35:25.710Z,102891.23
2018-11-03T02:39:31.371Z,102897.20
2018-11-03T02:43:36.294Z,102894.99
2018-11-03T02:47:42.225Z,102889.72
2018-11-03T02:51:46.683Z,102898.70
2018-11-03T02:55:50.776Z,102893.00
2018-11-03T02:59:55.094Z,102895.11
2018-11-03T03:03:59.181Z,102900.16
2018-11-03T03:08:03.333Z,102892.77
2018-11-03T03:12:07.427Z,102891.91
2018-11-03T03:16:11.584Z,102893.53
2018-11-03T03:20:15.804Z,102897.04
2018-11-03T03:24:20.310Z,102901.70
2018-11-03T03:28:24.370Z,102902.52
2018-11-03T03:32:28.718Z,102900.70
2018-11-03T03:36:32.925Z,102903.30
2018-11-03T03:40:37.304Z,102912.84
2018-11-03T03:44:41.559Z,102918.41
2018-11-03T03:48:45.879Z,102912.75
2018-11-03T03:52:49.880Z,102906.22
2018-11-03T03:56:54.114Z,102914.85
2018-11-03T04:00:58.199Z,102917.31
2018-11-03T04:05:03.175Z,102918.98
2018-11-03T04:09:08.217Z,102905.48
2018-11-03T04:13:12.336Z,102911.44
2018-11-03T04:17:16.289Z,102911.01
2018-11-03T04:21:28.785Z,102916.09
2018-11-03T04:25:32.880Z,102922.56
2018-11-03T04:29:37.124Z,102936.38
2018-11-03T04:33:41.214Z,102931.15
2018-11-03T04:37:45.985Z,102921.59
2018-11-03T04:41:50.072Z,102922.03
2018-11-03T04:45:54.692Z,102926.30
2018-11-03T04:49:59.488Z,102921.55
2018-11-03T04:54:03.856Z,102923.56
2018-11-03T04:58:08.002Z,102923.94
2018-11-03T05:02:13.232Z,102925.66
2018-11-03T05:06:17.190Z,102923.94
2018-11-03T05:10:21.286Z,102930.83
2018-11-03T05:14:25.332Z,102926.47
2018-11-03T05:18:29.737Z,102917.78
2018-11-03T05:22:34.820Z,102931.48
2018-11-03T05:26:39.371Z,102938.35
2018-11-03T05:30:43.661Z,102934.89
2018-11-03T05:34:48.172Z,102949.08
2018-11-03T05:38:52.475Z,102944.17
2018-11-03T05:42:56.619Z,102940.28
2018-11-03T05:47:00.696Z,102943.58
2018-11-03T05:51:05.106Z,102949.08
2018-11-03T05:55:10.853Z,102946.33
2018-11-03T05:59:15.213Z,102948.84
2018-11-03T06:03:20.215Z,102947.06
2018-11-03T06:07:24.653Z,102948.69
2018-11-03T06:11:29.023Z,102952.56
2018-11-03T06:15:33.320Z,102960.01
2018-11-03T06:19:37.089Z,102953.80
2018-11-03T06:23:41.391Z,102965.34
2018-11-03T06:27:45.244Z,102964.22
2018-11-03T06:31:49.944Z,102963.47
2018-11-03T06:35:54.000Z,102968.64
2018-11-03T06:39:58.321Z,102965.23
2018-11-03T06:44:02.345Z,102966.16
2018-11-03T06:48:06.999Z,102967.20
2018-11-03T06:52:11.088Z,102971.09
2018-11-03T06:56:15.314Z,102975.57
2018-11-03T07:00:19.420Z,102974.17
2018-11-03T07:04:23.756Z,102966.94
2018-11-03T07:08:28.462Z,102968.08
2018-11-03T07:12:33.641Z,102972.02
2018-11-03T07:16:37.571Z,102975.16
2018-11-03T07:20:41.590Z,102974.88
2018-11-03T07:24:45.655Z,102978.92
2018-11-03T07:28:49.655Z,102975.67
2018-11-03T07:32:54.494Z,102973.83
2018-11-03T07:36:58.455Z,102968.16
2018-11-03T07:41:02.584Z,102978.00
2018-11-03T07:45:08.071Z,102983.67
2018-11-03T07:49:16.096Z,102974.53
2018-11-03T07:53:20.376Z,102983.84
2018-11-03T07:57:24.428Z,102981.47
2018-11-03T08:01:28.643Z,102979.44
2018-11-03T08:05:32.944Z,102973.47
2018-11-03T08:09:36.980Z,102980.61
2018-11-03T08:13:41.449Z,102975.61
2018-11-03T08:17:46.231Z,102972.63
2018-11-03T08:21:50.703Z,102970.77
2018-11-03T08:25:55.411Z,102967.66
2018-11-03T08:29:59.682Z,102971.55
2018-11-03T08:34:03.770Z,102957.48
2018-11-03T08:38:08.126Z,102955.48
2018-11-03T08:42:12.373Z,102953.19
2018-11-03T08:46:17.710Z,102954.83
2018-11-03T08:50:22.486Z,102952.45
2018-11-03T08:54:26.444Z,102952.72
2018-11-03T08:58:31.423Z,102958.75
2018-11-03T09:02:35.627Z,102955.16
2018-11-03T09:06:39.691Z,102955.42
2018-11-03T09:10:44.391Z,102957.34
2018-11-03T09:14:48.484Z,102949.02
2018-11-03T09:18:52.863Z,102945.59
2018-11-03T09:22:56.831Z,102933.95
2018-11-03T09:27:01.070Z,102932.21
2018-11-03T09:31:05.282Z,102932.38
2018-11-03T09:35:10.825Z,102931.11
2018-11-03T09:39:15.015Z,102940.19
2018-11-03T09:43:19.023Z,102933.69
2018-11-03T09:47:22.978Z,102950.08
2018-11-03T09:51:28.349Z,102944.67
2018-11-03T09:55:32.508Z,102951.70
2018-11-03T09:59:36.605Z,102945.59
2018-11-03T10:03:40.855Z,102947.84
2018-11-03T10:07:45.614Z,102936.36
2018-11-03T10:11:49.582Z,102931.70
2018-11-03T10:15:53.714Z,102931.72
2018-11-03T10:19:58.050Z,102929.71
2018-11-03T10:24:02.257Z,102924.02
2018-11-03T10:28:06.990Z,102927.36
2018-11-03T10:32:10.888Z,102928.12
2018-11-03T10:36:15.089Z,102927.56
2018-11-03T10:40:19.183Z,102916.99
2018-11-03T10:44:23.183Z,102907.28
2018-11-03T10:48:27.150Z,102898.70
2018-11-03T10:52:31.056Z,102901.89
2018-11-03T10:56:35.056Z,102900.06
2018-11-03T11:00:45.143Z,102896.75
2018-11-03T11:04:54.726Z,102890.59
2018-11-03T11:09:03.875Z,102877.77
2018-11-03T11:13:10.329Z,102868.35
2018-11-03T11:17:14.803Z,102868.48
2018-11-03T11:21:18.772Z,102861.84
2018-11-03T11:25:22.702Z,102858.72
2018-11-03T11:29:26.969Z,102858.97
2018-11-03T11:33:31.441Z,102849.90
2018-11-03T11:37:36.031Z,102843.53
2018-11-03T11:41:39.871Z,102837.16
2018-11-03T11:45:43.994Z,102836.87
2018-11-03T11:49:48.211Z,102842.02
2018-11-03T11:53:53.081Z,102827.93
2018-11-03T11:57:56.944Z,102815.80
2018-11-03T12:02:01.279Z,102818.68
2018-11-03T12:06:05.376Z,102808.80
2018-11-03T12:10:09.515Z,102801.34
2018-11-03T12:14:13.245Z,102785.94
2018-11-03T12:18:17.459Z,102772.69
2018-11-03T12:22:21.447Z,102774.23
2018-11-03T12:26:25.424Z,102770.22
2018-11-03T12:30:29.280Z,102757.10
2018-11-03T12:34:33.134Z,102748.44
2018-11-03T12:38:36.999Z,102750.27
2018-11-03T12:42:40.915Z,102744.19
2018-11-03T12:46:44.836Z,102730.91
2018-11-03T12:50:48.706Z,102723.23
2018-11-03T12:54:52.571Z,102731.73
2018-11-03T12:58:57.364Z,102728.98
2018-11-03T13:03:01.914Z,102721.80
2018-11-03T13:07:06.037Z,102726.86
2018-11-03T13:11:10.327Z,102727.02
2018-11-03T13:15:14.498Z,102729.06
2018-11-03T13:19:18.449Z,102724.56
2018-11-03T13:23:22.351Z,102724.98
2018-11-03T13:27:26.575Z,102717.98
2018-11-03T13:31:30.437Z,102716.05
2018-11-03T13:35:35.239Z,102708.48
2018-11-03T13:39:40.189Z,102698.34
2018-11-03T13:43:44.009Z,102687.98
2018-11-03T13:47:48.733Z,102684.50
2018-11-03T13:51:52.549Z,102673.02
2018-11-03T13:55:56.666Z,102675.02
2018-11-03T14:00:00.593Z,102677.89
2018-11-03T14:04:06.288Z,102666.94
2018-11-03T14:08:10.188Z,102666.34
2018-11-03T14:12:14.425Z,102655.84
2018-11-03T14:16:20.590Z,102653.45
2018-11-03T14:20:25.411Z,102656.03
2018-11-03T14:24:44.188Z,102655.02
2018-11-03T14:28:48.159Z,102645.56
2018-11-03T14:32:52.644Z,102646.70
2018-11-03T14:36:56.793Z,102656.20
2018-11-03T14:41:00.681Z,102653.52
2018-11-03T14:45:06.283Z,102652.14
2018-11-03T14:49:10.249Z,102652.37
2018-11-03T14:53:14.153Z,102647.67
2018-11-03T14:57:18.968Z,102645.34
2018-11-03T15:01:23.088Z,102641.95
2018-11-03T15:05:27.524Z,102642.22
2018-11-03T15:09:32.213Z,102632.02
2018-11-03T15:13:36.161Z,102632.95
2018-11-03T15:17:40.200Z,102631.27
2018-11-03T15:21:44.093Z,102620.33
2018-11-03T15:25:48.259Z,102611.34
2018-11-03T15:29:52.168Z,102609.80
2018-11-03T15:33:56.065Z,102614.29
2018-11-03T15:37:59.944Z,102609.52
2018-11-03T15:42:05.315Z,102610.04
2018-11-03T15:46:09.728Z,102602.26
2018-11-03T15:50:14.873Z,102599.36
2018-11-03T15:54:18.944Z,102604.22
2018-11-03T15:58:23.159Z,102590.85
2018-11-03T16:02:27.030Z,102580.01
2018-11-03T16:06:30.905Z,102587.09
2018-11-03T16:10:34.829Z,102591.54
2018-11-03T16:14:39.044Z,102582.05
2018-11-03T16:18:42.962Z,102572.94
2018-11-03T16:22:47.778Z,102576.58
2018-11-03T16:26:51.712Z,102569.34
2018-11-03T16:30:55.616Z,102571.20
2018-11-03T16:35:00.106Z,102569.59
2018-11-03T16:39:07.096Z,102569.69
2018-11-03T16:43:10.983Z,102575.42
2018-11-03T16:47:15.139Z,102565.91
2018-11-03T16:51:19.104Z,102562.92
2018-11-03T16:55:23.063Z,102557.69
2018-11-03T16:59:27.018Z,102558.22
2018-11-03T17:03:31.550Z,102548.23
2018-11-03T17:07:37.194Z,102548.72
2018-11-03T17:11:41.041Z,102545.70
2018-11-03T17:15:44.961Z,102544.45
2018-11-03T17:19:48.894Z,102542.29
2018-11-03T17:23:53.076Z,102537.95
2018-11-03T17:27:57.026Z,102532.78
2018-11-03T17:32:00.929Z,102533.23
2018-11-03T17:36:04.952Z,102531.51
2018-11-03T17:40:09.768Z,102521.97
2018-11-03T17:44:14.089Z,102514.20
2018-11-03T17:48:17.885Z,102519.02
2018-11-03T17:52:22.168Z,102522.52
2018-11-03T17:56:26.019Z,102524.27
2018-11-03T18:00:30.338Z,102516.45
2018-11-03T18:04:34.104Z,102509.55
2018-11-03T18:08:38.176Z,102511.33
2018-11-03T18:12:42.924Z,102502.61
2018-11-03T18:16:46.836Z,102506.98
2018-11-03T18:20:50.692Z,102506.99
2018-11-03T18:24:54.597Z,102505.70
2018-11-03T18:28:58.512Z,102502.66
2018-11-03T18:33:02.524Z,102509.66
2018-11-03T18:37:06.672Z,102497.47
2018-11-03T18:41:12.802Z,102486.17
2018-11-03T18:45:16.616Z,102487.91
2018-11-03T18:49:20.479Z,102483.14
2018-11-03T18:53:24.319Z,102479.23
2018-11-03T18:57:29.031Z,102474.03
2018-11-03T19:01:32.910Z,102475.80
2018-11-03T19:05:36.802Z,102478.38
2018-11-03T19:09:40.763Z,102474.92
2018-11-03T19:13:44.940Z,102470.59
2018-11-03T19:17:48.932Z,102465.80
2018-11-03T19:21:52.795Z,102466.23
2018-11-03T19:25:56.712Z,102463.64
2018-11-03T19:30:01.082Z,102454.06
2018-11-03T19:34:05.379Z,102455.36
2018-11-03T19:38:09.563Z,102470.55
2018-11-03T19:42:13.482Z,102457.08
2018-11-03T19:46:17.372Z,102452.31
2018-11-03T19:50:21.513Z,102449.27
2018-11-03T19:54:25.484Z,102443.19
2018-11-03T19:58:30.200Z,102440.13
2018-11-03T20:02:34.180Z,102440.13
2018-11-03T20:06:38.140Z,102432.74
2018-11-03T20:10:42.045Z,102433.17
2018-11-03T20:14:45.927Z,102429.27
2018-11-03T20:18:49.791Z,102420.13
2018-11-03T20:22:53.706Z,102411.44
2018-11-03T20:26:58.597Z,102405.36
2018-11-03T20:31:02.496Z,102406.20
2018-11-03T20:35:07.061Z,102401.81
2018-11-03T20:39:11.815Z,102398.78
2018-11-03T20:43:17.004Z,102403.53
2018-11-03T20:47:20.920Z,102402.64
2018-11-03T20:51:24.841Z,102392.67
2018-11-03T20:55:28.968Z,102393.08
2018-11-03T20:59:32.839Z,102389.61
2018-11-03T21:03:37.226Z,102386.58
2018-11-03T21:07:41.964Z,102382.64
2018-11-03T21:11:45.925Z,102373.53
2018-11-03T21:15:49.809Z,102376.98
2018-11-03T21:19:54.000Z,102369.16
2018-11-03T21:23:58.505Z,102366.95
2018-11-03T21:28:02.792Z,102366.51
2018-11-03T21:32:07.312Z,102367.34
2018-11-03T21:36:12.033Z,102349.55
2018-11-03T21:40:15.915Z,102350.82
2018-11-03T21:44:19.912Z,102345.58
2018-11-03T21:48:23.835Z,102346.00
2018-11-03T21:52:27.717Z,102329.06
2018-11-03T21:56:31.629Z,102328.20
2018-11-03T22:00:35.484Z,102319.09
2018-11-03T22:04:39.452Z,102303.91
2018-11-03T22:08:43.756Z,102305.17
2018-11-03T22:12:47.623Z,102305.16
2018-11-03T22:16:51.557Z,102304.67
2018-11-03T22:20:56.082Z,102294.30
2018-11-03T22:25:00.022Z,102281.28
2018-11-03T22:29:05.183Z,102273.04
2018-11-03T22:33:09.048Z,102274.78
2018-11-03T22:37:12.937Z,102263.51
2018-11-03T22:41:16.868Z,102258.27
2018-11-03T22:45:20.783Z,102253.91
2018-11-03T22:49:25.488Z,102247.84
2018-11-03T22:53:30.389Z,102247.38
2018-11-03T22:57:34.247Z,102243.02
2018-11-03T23:01:38.410Z,102228.71
2018-11-03T23:05:42.293Z,102225.67
2018-11-03T23:09:46.571Z,102210.52
2018-11-03T23:13:50.476Z,102205.28
2018-11-03T23:17:54.467Z,102203.97
2018-11-03T23:21:58.509Z,102194.00
2018-11-03T23:26:02.596Z,102189.63
2018-11-03T23:30:09.248Z,102191.36
2018-11-03T23:34:12.888Z,102187.84
2018-11-03T23:38:16.831Z,102190.02
2018-11-03T23:42:21.016Z,102183.52
2018-11-03T23:46:24.935Z,102172.27
2018-11-03T23:50:29.167Z,102167.91
2018-11-03T23:54:33.085Z,102155.77
2018-11-03T23:58:36.968Z,102149.31
